sensor_id;sensor_type;location;lat;lon;timestamp;temperature;humidity
52555;DHT22;38455;52.710;6.502;2023-01-28T00:01:20;3.00;99.90
52555;DHT22;38455;52.710;6.502;2023-01-28T00:03:50;3.00;99.90
52555;DHT22;38455;52.710;6.502;2023-01-28T00:06:16;3.00;99.90
52555;DHT22;38455;52.710;6.502;2023-01-28T00:08:43;3.00;99.90
52555;DHT22;38455;52.710;6.502;2023-01-28T00:11:11;3.00;99.90
52555;DHT22;38455;52.710;6.502;2023-01-28T00:13:37;3.00;99.90
52555;DHT22;38455;52.710;6.502;2023-01-28T00:16:04;2.90;99.90
52555;DHT22;38455;52.710;6.502;2023-01-28T00:18:32;2.90;99.90
52555;DHT22;38455;52.710;6.502;2023-01-28T00:20:59;2.90;99.90
52555;DHT22;38455;52.710;6.502;2023-01-28T00:23:31;2.90;99.90
52555;DHT22;38455;52.710;6.502;2023-01-28T00:25:58;2.90;99.90
52555;DHT22;38455;52.710;6.502;2023-01-28T00:28:24;2.90;99.90
52555;DHT22;38455;52.710;6.502;2023-01-28T00:30:50;2.90;99.90
52555;DHT22;38455;52.710;6.502;2023-01-28T00:33:16;2.90;99.90
52555;DHT22;38455;52.710;6.502;2023-01-28T00:35:41;2.90;99.90
52555;DHT22;38455;52.710;6.502;2023-01-28T00:38:07;2.90;99.90
52555;DHT22;38455;52.710;6.502;2023-01-28T00:40:33;2.90;99.90
52555;DHT22;38455;52.710;6.502;2023-01-28T00:42:59;2.90;99.90
52555;DHT22;38455;52.710;6.502;2023-01-28T00:45:25;2.90;99.90
52555;DHT22;38455;52.710;6.502;2023-01-28T00:47:51;2.90;99.90
52555;DHT22;38455;52.710;6.502;2023-01-28T00:50:16;2.90;99.90
52555;DHT22;38455;52.710;6.502;2023-01-28T00:52:42;2.90;99.90
52555;DHT22;38455;52.710;6.502;2023-01-28T00:55:09;2.90;99.90
52555;DHT22;38455;52.710;6.502;2023-01-28T00:57:34;2.80;99.90
52555;DHT22;38455;52.710;6.502;2023-01-28T01:00:00;2.80;99.90
52555;DHT22;38455;52.710;6.502;2023-01-28T01:02:25;2.80;99.90
52555;DHT22;38455;52.710;6.502;2023-01-28T01:04:51;2.80;99.90
52555;DHT22;38455;52.710;6.502;2023-01-28T01:07:24;2.80;99.90
52555;DHT22;38455;52.710;6.502;2023-01-28T01:10:00;2.80;99.90
52555;DHT22;38455;52.710;6.502;2023-01-28T01:12:27;2.80;99.90
52555;DHT22;38455;52.710;6.502;2023-01-28T01:14:52;2.80;99.90
52555;DHT22;38455;52.710;6.502;2023-01-28T01:17:18;2.80;99.90
52555;DHT22;38455;52.710;6.502;2023-01-28T01:19:44;2.80;99.90
52555;DHT22;38455;52.710;6.502;2023-01-28T01:22:10;2.70;99.90
52555;DHT22;38455;52.710;6.502;2023-01-28T01:24:36;2.80;99.90
52555;DHT22;38455;52.710;6.502;2023-01-28T01:27:01;2.70;99.90
52555;DHT22;38455;52.710;6.502;2023-01-28T01:29:27;2.70;99.90
52555;DHT22;38455;52.710;6.502;2023-01-28T01:31:53;2.70;99.90
52555;DHT22;38455;52.710;6.502;2023-01-28T01:34:19;2.70;99.90
52555;DHT22;38455;52.710;6.502;2023-01-28T01:36:46;2.70;99.90
52555;DHT22;38455;52.710;6.502;2023-01-28T01:39:12;2.70;99.90
52555;DHT22;38455;52.710;6.502;2023-01-28T01:41:37;2.70;99.90
52555;DHT22;38455;52.710;6.502;2023-01-28T01:44:05;2.70;99.90
52555;DHT22;38455;52.710;6.502;2023-01-28T01:46:42;2.70;99.90
52555;DHT22;38455;52.710;6.502;2023-01-28T01:49:23;2.70;99.90
52555;DHT22;38455;52.710;6.502;2023-01-28T01:52:01;2.70;99.90
52555;DHT22;38455;52.710;6.502;2023-01-28T01:54:29;2.70;99.90
52555;DHT22;38455;52.710;6.502;2023-01-28T01:56:56;2.70;99.90
52555;DHT22;38455;52.710;6.502;2023-01-28T01:59:27;2.70;99.90
52555;DHT22;38455;52.710;6.502;2023-01-28T02:01:54;2.70;99.90
52555;DHT22;38455;52.710;6.502;2023-01-28T02:04:29;2.60;99.90
52555;DHT22;38455;52.710;6.502;2023-01-28T02:06:57;2.60;99.90
52555;DHT22;38455;52.710;6.502;2023-01-28T02:09:32;2.60;99.90
52555;DHT22;38455;52.710;6.502;2023-01-28T02:12:04;2.60;99.90
52555;DHT22;38455;52.710;6.502;2023-01-28T02:14:36;2.50;99.90
52555;DHT22;38455;52.710;6.502;2023-01-28T02:17:03;2.50;99.90
52555;DHT22;38455;52.710;6.502;2023-01-28T02:19:49;2.50;99.90
52555;DHT22;38455;52.710;6.502;2023-01-28T02:30:32;2.50;99.90
52555;DHT22;38455;52.710;6.502;2023-01-28T02:33:04;2.50;99.90
52555;DHT22;38455;52.710;6.502;2023-01-28T02:35:41;2.40;99.90
52555;DHT22;38455;52.710;6.502;2023-01-28T02:38:15;2.40;99.90
52555;DHT22;38455;52.710;6.502;2023-01-28T02:40:46;2.40;99.90
52555;DHT22;38455;52.710;6.502;2023-01-28T02:43:38;2.40;99.90
52555;DHT22;38455;52.710;6.502;2023-01-28T02:49:09;2.50;99.90
52555;DHT22;38455;52.710;6.502;2023-01-28T02:56:50;2.40;99.90
52555;DHT22;38455;52.710;6.502;2023-01-28T02:59:27;2.40;99.90
52555;DHT22;38455;52.710;6.502;2023-01-28T03:02:28;2.40;99.90
52555;DHT22;38455;52.710;6.502;2023-01-28T03:05:04;2.40;99.90
52555;DHT22;38455;52.710;6.502;2023-01-28T03:07:33;2.40;99.90
52555;DHT22;38455;52.710;6.502;2023-01-28T03:10:02;2.40;99.90
52555;DHT22;38455;52.710;6.502;2023-01-28T03:12:31;2.40;99.90
52555;DHT22;38455;52.710;6.502;2023-01-28T03:15:31;2.30;99.90
52555;DHT22;38455;52.710;6.502;2023-01-28T03:18:28;2.30;99.90
52555;DHT22;38455;52.710;6.502;2023-01-28T03:21:17;2.30;99.90
52555;DHT22;38455;52.710;6.502;2023-01-28T03:24:10;2.30;99.90
52555;DHT22;38455;52.710;6.502;2023-01-28T03:27:08;2.20;99.90
52555;DHT22;38455;52.710;6.502;2023-01-28T03:29:56;2.20;99.90
52555;DHT22;38455;52.710;6.502;2023-01-28T03:32:41;2.20;99.90
52555;DHT22;38455;52.710;6.502;2023-01-28T03:35:30;2.20;99.90
52555;DHT22;38455;52.710;6.502;2023-01-28T03:38:16;2.20;99.90
52555;DHT22;38455;52.710;6.502;2023-01-28T03:40:55;2.20;99.90
52555;DHT22;38455;52.710;6.502;2023-01-28T03:43:21;2.20;99.90
52555;DHT22;38455;52.710;6.502;2023-01-28T03:45:47;2.20;99.90
52555;DHT22;38455;52.710;6.502;2023-01-28T03:48:21;2.20;99.90
52555;DHT22;38455;52.710;6.502;2023-01-28T03:50:47;2.20;99.90
52555;DHT22;38455;52.710;6.502;2023-01-28T03:53:14;2.20;99.90
52555;DHT22;38455;52.710;6.502;2023-01-28T03:55:45;2.20;99.90
52555;DHT22;38455;52.710;6.502;2023-01-28T03:58:12;2.20;99.90
52555;DHT22;38455;52.710;6.502;2023-01-28T04:00:38;2.20;99.90
52555;DHT22;38455;52.710;6.502;2023-01-28T04:03:10;2.20;99.90
52555;DHT22;38455;52.710;6.502;2023-01-28T04:05:58;2.20;99.90
52555;DHT22;38455;52.710;6.502;2023-01-28T04:08:24;2.20;99.90
52555;DHT22;38455;52.710;6.502;2023-01-28T04:10:50;2.20;99.90
52555;DHT22;38455;52.710;6.502;2023-01-28T04:13:16;2.20;99.90
52555;DHT22;38455;52.710;6.502;2023-01-28T04:15:43;2.20;99.90
52555;DHT22;38455;52.710;6.502;2023-01-28T04:18:10;2.20;99.90
52555;DHT22;38455;52.710;6.502;2023-01-28T04:20:36;2.20;99.90
52555;DHT22;38455;52.710;6.502;2023-01-28T04:23:02;2.20;99.90
52555;DHT22;38455;52.710;6.502;2023-01-28T04:25:29;2.20;99.90
52555;DHT22;38455;52.710;6.502;2023-01-28T04:27:55;2.20;99.90
52555;DHT22;38455;52.710;6.502;2023-01-28T04:30:20;2.20;99.90
52555;DHT22;38455;52.710;6.502;2023-01-28T04:32:46;2.20;99.90
52555;DHT22;38455;52.710;6.502;2023-01-28T04:35:12;2.30;99.90
52555;DHT22;38455;52.710;6.502;2023-01-28T04:37:40;2.30;99.90
52555;DHT22;38455;52.710;6.502;2023-01-28T04:40:06;2.30;99.90
52555;DHT22;38455;52.710;6.502;2023-01-28T04:42:32;2.30;99.90
52555;DHT22;38455;52.710;6.502;2023-01-28T04:44:58;2.30;99.90
52555;DHT22;38455;52.710;6.502;2023-01-28T04:47:23;2.30;99.90
52555;DHT22;38455;52.710;6.502;2023-01-28T04:49:49;2.30;99.90
52555;DHT22;38455;52.710;6.502;2023-01-28T04:52:15;2.20;99.90
52555;DHT22;38455;52.710;6.502;2023-01-28T04:54:40;2.20;99.90
52555;DHT22;38455;52.710;6.502;2023-01-28T04:57:06;2.30;99.90
52555;DHT22;38455;52.710;6.502;2023-01-28T04:59:31;2.30;99.90
52555;DHT22;38455;52.710;6.502;2023-01-28T05:01:57;2.30;99.90
52555;DHT22;38455;52.710;6.502;2023-01-28T05:04:23;2.20;99.90
52555;DHT22;38455;52.710;6.502;2023-01-28T05:06:49;2.20;99.90
52555;DHT22;38455;52.710;6.502;2023-01-28T05:09:14;2.20;99.90
52555;DHT22;38455;52.710;6.502;2023-01-28T05:11:40;2.20;99.90
52555;DHT22;38455;52.710;6.502;2023-01-28T05:14:06;2.20;99.90
52555;DHT22;38455;52.710;6.502;2023-01-28T05:16:31;2.20;99.90
52555;DHT22;38455;52.710;6.502;2023-01-28T05:18:59;2.20;99.90
52555;DHT22;38455;52.710;6.502;2023-01-28T05:21:25;2.20;99.90
52555;DHT22;38455;52.710;6.502;2023-01-28T05:23:51;2.20;99.90
52555;DHT22;38455;52.710;6.502;2023-01-28T05:26:17;2.20;99.90
52555;DHT22;38455;52.710;6.502;2023-01-28T05:28:42;2.20;99.90
52555;DHT22;38455;52.710;6.502;2023-01-28T05:31:09;2.20;99.90
52555;DHT22;38455;52.710;6.502;2023-01-28T05:33:35;2.20;99.90
52555;DHT22;38455;52.710;6.502;2023-01-28T05:36:00;2.20;99.90
52555;DHT22;38455;52.710;6.502;2023-01-28T05:38:26;2.20;99.90
52555;DHT22;38455;52.710;6.502;2023-01-28T05:40:52;2.20;99.90
52555;DHT22;38455;52.710;6.502;2023-01-28T05:43:17;2.20;99.90
52555;DHT22;38455;52.710;6.502;2023-01-28T05:45:43;2.20;99.90
52555;DHT22;38455;52.710;6.502;2023-01-28T05:48:08;2.20;99.90
52555;DHT22;38455;52.710;6.502;2023-01-28T05:50:34;2.20;99.90
52555;DHT22;38455;52.710;6.502;2023-01-28T05:53:00;2.20;99.90
52555;DHT22;38455;52.710;6.502;2023-01-28T05:55:25;2.20;99.90
52555;DHT22;38455;52.710;6.502;2023-01-28T05:57:51;2.20;99.90
52555;DHT22;38455;52.710;6.502;2023-01-28T06:00:17;2.20;99.90
52555;DHT22;38455;52.710;6.502;2023-01-28T06:02:43;2.20;99.90
52555;DHT22;38455;52.710;6.502;2023-01-28T06:05:09;2.20;99.90
52555;DHT22;38455;52.710;6.502;2023-01-28T06:07:34;2.10;99.90
52555;DHT22;38455;52.710;6.502;2023-01-28T06:10:00;2.10;99.90
52555;DHT22;38455;52.710;6.502;2023-01-28T06:12:26;2.10;99.90
52555;DHT22;38455;52.710;6.502;2023-01-28T06:14:52;2.10;99.90
52555;DHT22;38455;52.710;6.502;2023-01-28T06:17:17;2.10;99.90
52555;DHT22;38455;52.710;6.502;2023-01-28T06:19:43;2.10;99.90
52555;DHT22;38455;52.710;6.502;2023-01-28T06:22:09;2.10;99.90
52555;DHT22;38455;52.710;6.502;2023-01-28T06:24:35;2.20;99.90
52555;DHT22;38455;52.710;6.502;2023-01-28T06:27:00;2.20;99.90
52555;DHT22;38455;52.710;6.502;2023-01-28T06:29:26;2.10;99.90
52555;DHT22;38455;52.710;6.502;2023-01-28T06:31:52;2.20;99.90
52555;DHT22;38455;52.710;6.502;2023-01-28T06:34:17;2.20;99.90
52555;DHT22;38455;52.710;6.502;2023-01-28T06:36:43;2.20;99.90
52555;DHT22;38455;52.710;6.502;2023-01-28T06:39:09;2.10;99.90
52555;DHT22;38455;52.710;6.502;2023-01-28T06:41:35;2.10;99.90
52555;DHT22;38455;52.710;6.502;2023-01-28T06:44:01;2.10;99.90
52555;DHT22;38455;52.710;6.502;2023-01-28T06:46:27;2.10;99.90
52555;DHT22;38455;52.710;6.502;2023-01-28T06:48:52;2.10;99.90
52555;DHT22;38455;52.710;6.502;2023-01-28T06:51:18;2.10;99.90
52555;DHT22;38455;52.710;6.502;2023-01-28T06:53:44;2.10;99.90
52555;DHT22;38455;52.710;6.502;2023-01-28T06:56:09;2.10;99.90
52555;DHT22;38455;52.710;6.502;2023-01-28T06:58:35;2.10;99.90
52555;DHT22;38455;52.710;6.502;2023-01-28T07:01:01;2.10;99.90
52555;DHT22;38455;52.710;6.502;2023-01-28T07:03:26;2.10;99.90
52555;DHT22;38455;52.710;6.502;2023-01-28T07:05:52;2.10;99.90
52555;DHT22;38455;52.710;6.502;2023-01-28T07:08:18;2.10;99.90
52555;DHT22;38455;52.710;6.502;2023-01-28T07:10:43;2.10;99.90
52555;DHT22;38455;52.710;6.502;2023-01-28T07:13:09;2.10;99.90
52555;DHT22;38455;52.710;6.502;2023-01-28T07:15:35;2.10;99.90
52555;DHT22;38455;52.710;6.502;2023-01-28T07:18:01;2.10;99.90
52555;DHT22;38455;52.710;6.502;2023-01-28T07:20:27;2.10;99.90
52555;DHT22;38455;52.710;6.502;2023-01-28T07:22:52;2.10;99.90
52555;DHT22;38455;52.710;6.502;2023-01-28T07:25:18;2.10;99.90
52555;DHT22;38455;52.710;6.502;2023-01-28T07:27:51;2.10;99.90
52555;DHT22;38455;52.710;6.502;2023-01-28T07:30:19;2.10;99.90
52555;DHT22;38455;52.710;6.502;2023-01-28T07:32:45;2.10;99.90
52555;DHT22;38455;52.710;6.502;2023-01-28T07:35:12;2.00;99.90
52555;DHT22;38455;52.710;6.502;2023-01-28T07:37:38;2.10;99.90
52555;DHT22;38455;52.710;6.502;2023-01-28T07:40:04;2.00;99.90
52555;DHT22;38455;52.710;6.502;2023-01-28T07:42:33;2.00;99.90
52555;DHT22;38455;52.710;6.502;2023-01-28T07:44:58;2.10;99.90
52555;DHT22;38455;52.710;6.502;2023-01-28T07:47:24;2.10;99.90
52555;DHT22;38455;52.710;6.502;2023-01-28T07:49:50;2.10;99.90
52555;DHT22;38455;52.710;6.502;2023-01-28T07:52:15;2.10;99.90
52555;DHT22;38455;52.710;6.502;2023-01-28T07:54:41;2.10;99.90
52555;DHT22;38455;52.710;6.502;2023-01-28T07:57:07;2.10;99.90
52555;DHT22;38455;52.710;6.502;2023-01-28T07:59:36;2.10;99.90
52555;DHT22;38455;52.710;6.502;2023-01-28T08:02:01;2.10;99.90
52555;DHT22;38455;52.710;6.502;2023-01-28T08:04:27;2.10;99.90
52555;DHT22;38455;52.710;6.502;2023-01-28T08:06:53;2.10;99.90
52555;DHT22;38455;52.710;6.502;2023-01-28T08:09:19;2.20;99.90
52555;DHT22;38455;52.710;6.502;2023-01-28T08:11:44;2.20;99.90
52555;DHT22;38455;52.710;6.502;2023-01-28T08:14:10;2.20;99.90
52555;DHT22;38455;52.710;6.502;2023-01-28T08:16:36;2.20;99.90
52555;DHT22;38455;52.710;6.502;2023-01-28T08:19:01;2.20;99.90
52555;DHT22;38455;52.710;6.502;2023-01-28T08:21:27;2.20;99.90
52555;DHT22;38455;52.710;6.502;2023-01-28T08:23:53;2.20;99.90
52555;DHT22;38455;52.710;6.502;2023-01-28T08:26:19;2.10;99.90
52555;DHT22;38455;52.710;6.502;2023-01-28T08:28:45;2.00;99.90
52555;DHT22;38455;52.710;6.502;2023-01-28T08:31:11;1.90;99.90
52555;DHT22;38455;52.710;6.502;2023-01-28T08:33:36;1.90;99.90
52555;DHT22;38455;52.710;6.502;2023-01-28T08:36:03;1.90;99.90
52555;DHT22;38455;52.710;6.502;2023-01-28T08:38:29;1.90;99.90
52555;DHT22;38455;52.710;6.502;2023-01-28T08:40:58;2.00;99.90
52555;DHT22;38455;52.710;6.502;2023-01-28T08:43:24;2.00;99.90
52555;DHT22;38455;52.710;6.502;2023-01-28T08:45:50;2.10;99.90
52555;DHT22;38455;52.710;6.502;2023-01-28T08:48:17;2.10;99.90
52555;DHT22;38455;52.710;6.502;2023-01-28T08:50:43;2.30;99.90
52555;DHT22;38455;52.710;6.502;2023-01-28T08:53:14;2.30;99.90
52555;DHT22;38455;52.710;6.502;2023-01-28T08:55:40;2.30;99.90
52555;DHT22;38455;52.710;6.502;2023-01-28T08:58:09;2.40;99.90
52555;DHT22;38455;52.710;6.502;2023-01-28T09:00:36;2.30;99.90
52555;DHT22;38455;52.710;6.502;2023-01-28T09:03:02;2.30;99.90
52555;DHT22;38455;52.710;6.502;2023-01-28T09:05:28;2.40;99.90
52555;DHT22;38455;52.710;6.502;2023-01-28T09:07:54;2.40;99.90
52555;DHT22;38455;52.710;6.502;2023-01-28T09:10:20;2.50;99.90
52555;DHT22;38455;52.710;6.502;2023-01-28T09:12:46;2.70;99.90
52555;DHT22;38455;52.710;6.502;2023-01-28T09:15:12;2.70;99.90
52555;DHT22;38455;52.710;6.502;2023-01-28T09:17:38;2.70;99.90
52555;DHT22;38455;52.710;6.502;2023-01-28T09:20:05;2.70;99.90
52555;DHT22;38455;52.710;6.502;2023-01-28T09:22:31;2.70;99.90
52555;DHT22;38455;52.710;6.502;2023-01-28T09:24:57;2.80;99.90
52555;DHT22;38455;52.710;6.502;2023-01-28T09:27:23;3.00;99.90
52555;DHT22;38455;52.710;6.502;2023-01-28T09:29:48;3.40;99.90
52555;DHT22;38455;52.710;6.502;2023-01-28T09:32:14;3.50;99.90
52555;DHT22;38455;52.710;6.502;2023-01-28T09:34:40;3.50;99.90
52555;DHT22;38455;52.710;6.502;2023-01-28T09:37:05;3.50;99.90
52555;DHT22;38455;52.710;6.502;2023-01-28T09:39:31;3.40;99.90
52555;DHT22;38455;52.710;6.502;2023-01-28T09:42:22;3.50;99.90
52555;DHT22;38455;52.710;6.502;2023-01-28T09:47:40;4.20;99.90
52555;DHT22;38455;52.710;6.502;2023-01-28T09:50:13;4.50;99.90
52555;DHT22;38455;52.710;6.502;2023-01-28T09:52:40;4.60;99.90
52555;DHT22;38455;52.710;6.502;2023-01-28T09:55:29;4.70;99.90
52555;DHT22;38455;52.710;6.502;2023-01-28T09:57:55;4.70;99.90
52555;DHT22;38455;52.710;6.502;2023-01-28T10:00:24;4.90;99.90
52555;DHT22;38455;52.710;6.502;2023-01-28T10:03:24;5.00;99.90
52555;DHT22;38455;52.710;6.502;2023-01-28T10:19:22;5.90;99.90
52555;DHT22;38455;52.710;6.502;2023-01-28T10:21:56;6.50;99.90
52555;DHT22;38455;52.710;6.502;2023-01-28T10:24:40;7.80;99.90
52555;DHT22;38455;52.710;6.502;2023-01-28T10:27:16;9.30;99.90
52555;DHT22;38455;52.710;6.502;2023-01-28T10:29:44;10.50;99.90
52555;DHT22;38455;52.710;6.502;2023-01-28T10:32:29;11.00;99.90
52555;DHT22;38455;52.710;6.502;2023-01-28T10:34:56;11.50;99.90
52555;DHT22;38455;52.710;6.502;2023-01-28T10:37:30;11.40;99.90
52555;DHT22;38455;52.710;6.502;2023-01-28T10:39:59;11.20;99.90
52555;DHT22;38455;52.710;6.502;2023-01-28T10:42:31;10.80;99.90
52555;DHT22;38455;52.710;6.502;2023-01-28T10:45:05;11.00;99.90
52555;DHT22;38455;52.710;6.502;2023-01-28T10:47:38;11.50;99.90
52555;DHT22;38455;52.710;6.502;2023-01-28T10:50:09;11.80;99.90
52555;DHT22;38455;52.710;6.502;2023-01-28T10:52:59;11.90;99.90
52555;DHT22;38455;52.710;6.502;2023-01-28T10:55:28;12.30;99.40
52555;DHT22;38455;52.710;6.502;2023-01-28T10:57:55;12.80;99.70
52555;DHT22;38455;52.710;6.502;2023-01-28T11:02:48;12.60;97.90
52555;DHT22;38455;52.710;6.502;2023-01-28T11:05:15;12.30;98.20
52555;DHT22;38455;52.710;6.502;2023-01-28T11:07:42;12.20;98.20
52555;DHT22;38455;52.710;6.502;2023-01-28T11:10:30;12.00;98.00
52555;DHT22;38455;52.710;6.502;2023-01-28T11:12:58;11.90;96.20
52555;DHT22;38455;52.710;6.502;2023-01-28T11:15:24;11.80;97.80
52555;DHT22;38455;52.710;6.502;2023-01-28T11:18:03;11.80;97.30
52555;DHT22;38455;52.710;6.502;2023-01-28T11:20:36;12.40;97.00
52555;DHT22;38455;52.710;6.502;2023-01-28T11:23:03;12.80;96.70
52555;DHT22;38455;52.710;6.502;2023-01-28T11:25:31;12.80;95.80
52555;DHT22;38455;52.710;6.502;2023-01-28T11:27:59;12.50;95.50
52555;DHT22;38455;52.710;6.502;2023-01-28T11:30:34;11.80;95.90
52555;DHT22;38455;52.710;6.502;2023-01-28T11:33:19;11.30;95.90
52555;DHT22;38455;52.710;6.502;2023-01-28T11:38:22;11.60;95.40
52555;DHT22;38455;52.710;6.502;2023-01-28T11:40:56;12.30;96.20
52555;DHT22;38455;52.710;6.502;2023-01-28T11:43:24;12.60;95.50
52555;DHT22;38455;52.710;6.502;2023-01-28T11:46:02;13.10;95.10
52555;DHT22;38455;52.710;6.502;2023-01-28T12:00:09;12.70;90.40
52555;DHT22;38455;52.710;6.502;2023-01-28T12:08:23;11.90;91.90
52555;DHT22;38455;52.710;6.502;2023-01-28T12:11:01;11.60;93.10
52555;DHT22;38455;52.710;6.502;2023-01-28T12:14:04;11.40;93.80
52555;DHT22;38455;52.710;6.502;2023-01-28T12:19:32;10.80;95.20
52555;DHT22;38455;52.710;6.502;2023-01-28T12:25:09;11.70;94.40
52555;DHT22;38455;52.710;6.502;2023-01-28T12:27:48;11.90;93.30
52555;DHT22;38455;52.710;6.502;2023-01-28T12:33:28;11.00;95.10
52555;DHT22;38455;52.710;6.502;2023-01-28T12:41:31;9.50;98.70
52555;DHT22;38455;52.710;6.502;2023-01-28T12:44:11;9.10;99.40
52555;DHT22;38455;52.710;6.502;2023-01-28T12:46:50;8.80;99.90
52555;DHT22;38455;52.710;6.502;2023-01-28T12:49:34;8.50;99.90
52555;DHT22;38455;52.710;6.502;2023-01-28T12:57:27;8.30;99.90
52555;DHT22;38455;52.710;6.502;2023-01-28T13:00:02;8.20;99.90
52555;DHT22;38455;52.710;6.502;2023-01-28T13:02:38;8.10;99.90
52555;DHT22;38455;52.710;6.502;2023-01-28T13:05:17;8.00;99.90
52555;DHT22;38455;52.710;6.502;2023-01-28T13:07:58;8.00;99.90
52555;DHT22;38455;52.710;6.502;2023-01-28T13:10:31;7.70;99.90
52555;DHT22;38455;52.710;6.502;2023-01-28T13:13:02;7.50;99.90
52555;DHT22;38455;52.710;6.502;2023-01-28T13:15:28;7.30;99.90
52555;DHT22;38455;52.710;6.502;2023-01-28T13:17:58;7.30;99.90
52555;DHT22;38455;52.710;6.502;2023-01-28T13:23:24;7.30;99.90
52555;DHT22;38455;52.710;6.502;2023-01-28T13:25:52;7.40;99.90
52555;DHT22;38455;52.710;6.502;2023-01-28T13:28:45;7.40;99.90
52555;DHT22;38455;52.710;6.502;2023-01-28T13:31:14;7.30;99.90
52555;DHT22;38455;52.710;6.502;2023-01-28T13:41:48;7.10;99.90
52555;DHT22;38455;52.710;6.502;2023-01-28T13:46:50;7.00;99.90
52555;DHT22;38455;52.710;6.502;2023-01-28T13:49:17;7.00;99.90
52555;DHT22;38455;52.710;6.502;2023-01-28T13:51:50;7.00;99.90
52555;DHT22;38455;52.710;6.502;2023-01-28T13:54:20;7.00;99.90
52555;DHT22;38455;52.710;6.502;2023-01-28T13:59:30;7.00;99.90
52555;DHT22;38455;52.710;6.502;2023-01-28T14:15:24;6.50;99.90
52555;DHT22;38455;52.710;6.502;2023-01-28T14:17:56;6.50;99.90
52555;DHT22;38455;52.710;6.502;2023-01-28T14:20:32;6.70;99.90
52555;DHT22;38455;52.710;6.502;2023-01-28T14:23:03;6.70;99.90
52555;DHT22;38455;52.710;6.502;2023-01-28T14:27:57;6.90;99.90
52555;DHT22;38455;52.710;6.502;2023-01-28T14:33:01;6.90;99.90
52555;DHT22;38455;52.710;6.502;2023-01-28T14:35:30;6.80;99.90
52555;DHT22;38455;52.710;6.502;2023-01-28T14:37:56;6.60;99.90
52555;DHT22;38455;52.710;6.502;2023-01-28T14:40:23;6.70;99.90
52555;DHT22;38455;52.710;6.502;2023-01-28T14:42:51;6.70;99.90
52555;DHT22;38455;52.710;6.502;2023-01-28T14:52:59;6.50;99.90
52555;DHT22;38455;52.710;6.502;2023-01-28T14:55:32;6.40;99.90
52555;DHT22;38455;52.710;6.502;2023-01-28T14:58:01;6.40;99.90
52555;DHT22;38455;52.710;6.502;2023-01-28T15:00:29;6.30;99.90
52555;DHT22;38455;52.710;6.502;2023-01-28T15:02:56;6.20;99.90
52555;DHT22;38455;52.710;6.502;2023-01-28T15:05:28;6.10;99.90
52555;DHT22;38455;52.710;6.502;2023-01-28T15:07:54;6.00;99.90
52555;DHT22;38455;52.710;6.502;2023-01-28T15:10:23;6.10;99.90
52555;DHT22;38455;52.710;6.502;2023-01-28T15:12:51;6.10;99.90
52555;DHT22;38455;52.710;6.502;2023-01-28T15:15:20;6.00;99.90
52555;DHT22;38455;52.710;6.502;2023-01-28T15:17:48;6.00;99.90
52555;DHT22;38455;52.710;6.502;2023-01-28T15:20:15;6.00;99.90
52555;DHT22;38455;52.710;6.502;2023-01-28T15:22:42;5.90;99.90
52555;DHT22;38455;52.710;6.502;2023-01-28T15:25:14;5.90;99.90
52555;DHT22;38455;52.710;6.502;2023-01-28T15:27:40;5.90;99.90
52555;DHT22;38455;52.710;6.502;2023-01-28T15:30:17;5.90;99.90
52555;DHT22;38455;52.710;6.502;2023-01-28T15:32:42;5.90;99.90
52555;DHT22;38455;52.710;6.502;2023-01-28T15:35:09;5.80;99.90
52555;DHT22;38455;52.710;6.502;2023-01-28T15:37:38;5.80;99.90
52555;DHT22;38455;52.710;6.502;2023-01-28T15:40:04;5.80;99.90
52555;DHT22;38455;52.710;6.502;2023-01-28T15:42:30;5.70;99.90
52555;DHT22;38455;52.710;6.502;2023-01-28T15:44:56;5.60;99.90
52555;DHT22;38455;52.710;6.502;2023-01-28T15:47:25;5.70;99.90
52555;DHT22;38455;52.710;6.502;2023-01-28T15:49:54;5.60;99.90
52555;DHT22;38455;52.710;6.502;2023-01-28T15:52:21;5.60;99.90
52555;DHT22;38455;52.710;6.502;2023-01-28T15:54:53;5.60;99.90
52555;DHT22;38455;52.710;6.502;2023-01-28T15:57:19;5.60;99.90
52555;DHT22;38455;52.710;6.502;2023-01-28T15:59:45;5.60;99.90
52555;DHT22;38455;52.710;6.502;2023-01-28T16:02:16;5.60;99.90
52555;DHT22;38455;52.710;6.502;2023-01-28T16:04:42;5.60;99.90
52555;DHT22;38455;52.710;6.502;2023-01-28T16:07:07;5.50;99.90
52555;DHT22;38455;52.710;6.502;2023-01-28T16:09:33;5.50;99.90
52555;DHT22;38455;52.710;6.502;2023-01-28T16:12:02;5.40;99.90
52555;DHT22;38455;52.710;6.502;2023-01-28T16:14:30;5.40;99.90
52555;DHT22;38455;52.710;6.502;2023-01-28T16:16:56;5.40;99.90
52555;DHT22;38455;52.710;6.502;2023-01-28T16:19:32;5.40;99.90
52555;DHT22;38455;52.710;6.502;2023-01-28T16:21:59;5.40;99.90
52555;DHT22;38455;52.710;6.502;2023-01-28T16:24:26;5.30;99.90
52555;DHT22;38455;52.710;6.502;2023-01-28T16:27:02;5.30;99.90
52555;DHT22;38455;52.710;6.502;2023-01-28T16:29:28;5.20;99.90
52555;DHT22;38455;52.710;6.502;2023-01-28T16:31:54;5.20;99.90
52555;DHT22;38455;52.710;6.502;2023-01-28T16:34:21;5.20;99.90
52555;DHT22;38455;52.710;6.502;2023-01-28T16:36:47;5.10;99.90
52555;DHT22;38455;52.710;6.502;2023-01-28T16:39:12;5.10;99.90
52555;DHT22;38455;52.710;6.502;2023-01-28T16:41:42;5.00;99.90
52555;DHT22;38455;52.710;6.502;2023-01-28T16:44:12;4.90;99.90
52555;DHT22;38455;52.710;6.502;2023-01-28T16:46:37;4.90;99.90
52555;DHT22;38455;52.710;6.502;2023-01-28T16:49:03;4.80;99.90
52555;DHT22;38455;52.710;6.502;2023-01-28T16:51:29;4.80;99.90
52555;DHT22;38455;52.710;6.502;2023-01-28T16:53:54;4.70;99.90
52555;DHT22;38455;52.710;6.502;2023-01-28T16:56:21;4.70;99.90
52555;DHT22;38455;52.710;6.502;2023-01-28T16:58:47;4.60;99.90
52555;DHT22;38455;52.710;6.502;2023-01-28T17:01:13;4.60;99.90
52555;DHT22;38455;52.710;6.502;2023-01-28T17:03:38;4.60;99.90
52555;DHT22;38455;52.710;6.502;2023-01-28T17:06:04;4.60;99.90
52555;DHT22;38455;52.710;6.502;2023-01-28T17:08:30;4.60;99.90
52555;DHT22;38455;52.710;6.502;2023-01-28T17:10:56;4.60;99.90
52555;DHT22;38455;52.710;6.502;2023-01-28T17:13:21;4.60;99.90
52555;DHT22;38455;52.710;6.502;2023-01-28T17:15:47;4.60;99.90
52555;DHT22;38455;52.710;6.502;2023-01-28T17:18:13;4.60;99.90
52555;DHT22;38455;52.710;6.502;2023-01-28T17:20:38;4.50;99.90
52555;DHT22;38455;52.710;6.502;2023-01-28T17:23:07;4.50;99.90
52555;DHT22;38455;52.710;6.502;2023-01-28T17:25:37;4.50;99.90
52555;DHT22;38455;52.710;6.502;2023-01-28T17:28:03;4.50;99.90
52555;DHT22;38455;52.710;6.502;2023-01-28T17:30:29;4.40;99.90
52555;DHT22;38455;52.710;6.502;2023-01-28T17:32:54;4.50;99.90
52555;DHT22;38455;52.710;6.502;2023-01-28T17:35:20;4.50;99.90
52555;DHT22;38455;52.710;6.502;2023-01-28T17:37:45;4.40;99.90
52555;DHT22;38455;52.710;6.502;2023-01-28T17:40:11;4.40;99.90
52555;DHT22;38455;52.710;6.502;2023-01-28T17:42:37;4.40;99.90
52555;DHT22;38455;52.710;6.502;2023-01-28T17:45:02;4.50;99.90
52555;DHT22;38455;52.710;6.502;2023-01-28T17:47:28;4.50;99.90
52555;DHT22;38455;52.710;6.502;2023-01-28T17:49:54;4.50;99.90
52555;DHT22;38455;52.710;6.502;2023-01-28T17:52:20;4.40;99.90
52555;DHT22;38455;52.710;6.502;2023-01-28T17:54:45;4.40;99.90